Time;durP1;ratioP1;P1;durP2;ratioP2;P2;SDS_P1;SDS_P2;PMS_P1;PMS_P2;Temp;Humidity;BMP_temperature;BMP_pressure;BME280_temperature;BME280_humidity;BME280_pressure;Samples;Min_cycle;Max_cycle;Signal;HPM_P1;HPM_P2
2022/07/16 00:01:23;;;;;;;4.90;4.50;;;22.30;44.70;;;;;;5033870;28;20193;-46
2022/07/16 00:03:59;;;;;;;4.87;4.40;;;22.40;44.60;;;;;;5032099;28;20202;-44
2022/07/16 00:06:28;;;;;;;4.70;4.30;;;22.40;44.50;;;;;;5033397;28;20431;-45
2022/07/16 00:08:54;;;;;;;4.67;3.97;;;22.40;44.50;;;;;;5033065;28;20797;-44
2022/07/16 00:11:21;;;;;;;4.37;3.97;;;22.50;44.30;;;;;;5033533;28;21005;-45
2022/07/16 00:13:48;;;;;;;4.63;4.23;;;22.50;44.30;;;;;;5033278;28;20426;-44
2022/07/16 00:16:14;;;;;;;4.57;4.17;;;22.10;45.10;;;;;;5033454;28;20431;-44
2022/07/16 00:21:25;;;;;;;7.20;3.90;;;21.80;45.30;;;;;;5033824;28;20441;-44
2022/07/16 00:23:50;;;;;;;6.33;4.30;;;21.80;45.20;;;;;;5032999;28;20428;-44
2022/07/16 00:26:16;;;;;;;3.87;3.57;;;21.90;44.90;;;;;;5033041;28;20795;-44
2022/07/16 00:28:42;;;;;;;3.57;3.27;;;22.00;44.90;;;;;;5032707;28;20201;-44
2022/07/16 00:31:08;;;;;;;7.67;5.57;;;22.00;44.80;;;;;;5031784;28;20989;-44
2022/07/16 00:33:34;;;;;;;4.60;4.07;;;22.10;44.70;;;;;;5033069;28;20197;-44
2022/07/16 00:36:00;;;;;;;6.17;3.67;;;22.00;44.80;;;;;;5032538;28;20428;-44
2022/07/16 00:38:25;;;;;;;4.17;3.77;;;22.00;44.70;;;;;;5032467;28;20201;-45
2022/07/16 00:40:52;;;;;;;4.57;4.17;;;22.10;44.70;;;;;;5033198;28;20801;-44
2022/07/16 00:43:17;;;;;;;3.90;3.50;;;22.00;44.70;;;;;;5032514;28;20535;-44
2022/07/16 00:45:43;;;;;;;4.80;4.40;;;22.10;44.70;;;;;;5026225;28;20490;-44
2022/07/16 00:48:09;;;;;;;4.77;4.00;;;22.00;44.70;;;;;;5032360;28;20197;-45
2022/07/16 00:50:36;;;;;;;4.93;4.53;;;22.00;44.90;;;;;;5033031;28;20316;-44
2022/07/16 00:53:03;;;;;;;4.20;3.90;;;21.90;45.10;;;;;;5031166;28;20227;-44
2022/07/16 00:55:30;;;;;;;4.70;4.30;;;21.80;45.20;;;;;;5032553;28;20845;-44
2022/07/16 00:57:56;;;;;;;4.57;4.17;;;21.80;45.30;;;;;;5030640;28;20546;-44
2022/07/16 01:00:22;;;;;;;4.37;3.97;;;21.80;45.30;;;;;;5032892;28;20420;-44
2022/07/16 01:02:48;;;;;;;5.37;4.10;;;21.70;45.40;;;;;;5032141;28;20511;-43
2022/07/16 01:05:15;;;;;;;4.90;4.40;;;21.70;45.40;;;;;;5032324;28;20634;-44
2022/07/16 01:07:42;;;;;;;4.77;4.37;;;21.70;45.60;;;;;;5032179;28;20417;-45
2022/07/16 01:10:08;;;;;;;6.60;4.67;;;21.70;45.60;;;;;;5032692;28;20478;-44
2022/07/16 01:12:34;;;;;;;4.87;4.47;;;21.60;45.70;;;;;;5032091;28;20428;-44
2022/07/16 01:15:00;;;;;;;4.93;4.53;;;21.70;45.80;;;;;;5032186;28;20208;-44
2022/07/16 01:17:26;;;;;;;5.30;4.80;;;21.60;46.00;;;;;;5031993;28;20432;-44
2022/07/16 01:19:51;;;;;;;4.87;4.47;;;21.60;46.00;;;;;;5032322;28;20471;-44
2022/07/16 01:22:21;;;;;;;6.60;4.40;;;21.60;46.00;;;;;;5032397;28;20543;-46
2022/07/16 01:24:48;;;;;;;5.10;4.60;;;21.60;45.90;;;;;;5030134;28;20684;-44
2022/07/16 01:27:14;;;;;;;4.90;4.50;;;21.60;45.90;;;;;;5032198;28;20431;-44
2022/07/16 01:29:40;;;;;;;4.93;4.53;;;21.50;45.80;;;;;;5031807;28;20442;-45
2022/07/16 01:32:06;;;;;;;5.13;3.60;;;21.50;45.90;;;;;;5032179;28;20432;-44
2022/07/16 01:34:32;;;;;;;5.23;4.50;;;21.50;46.10;;;;;;5031435;28;20185;-45
2022/07/16 01:37:00;;;;;;;4.23;3.93;;;21.40;46.20;;;;;;5032129;28;20331;-44
2022/07/16 01:39:28;;;;;;;5.30;4.33;;;21.40;46.30;;;;;;5030229;28;20612;-44
2022/07/16 01:41:55;;;;;;;4.20;3.90;;;21.30;46.40;;;;;;5031705;28;20428;-44
2022/07/16 01:44:24;;;;;;;6.53;4.50;;;21.30;46.70;;;;;;5028543;28;20470;-44
2022/07/16 01:46:51;;;;;;;5.40;4.60;;;21.30;47.20;;;;;;5028202;28;20435;-44
2022/07/16 01:49:16;;;;;;;4.77;4.33;;;21.40;46.50;;;;;;5031445;28;20899;-44
2022/07/16 01:51:42;;;;;;;10.43;5.00;;;21.40;46.70;;;;;;5030033;28;20472;-44
2022/07/16 01:54:08;;;;;;;6.80;5.17;;;21.40;46.70;;;;;;5031378;28;20196;-44
2022/07/16 01:56:33;;;;;;;6.90;4.80;;;21.40;46.90;;;;;;5031389;28;20255;-48
2022/07/16 01:58:59;;;;;;;5.00;4.60;;;21.30;47.30;;;;;;5031288;28;20212;-48
2022/07/16 02:01:24;;;;;;;5.30;4.80;;;21.20;47.30;;;;;;5031359;28;20193;-47
2022/07/16 02:03:50;;;;;;;4.43;4.03;;;21.20;47.20;;;;;;5030699;28;20197;-47
2022/07/16 02:06:16;;;;;;;4.47;4.03;;;21.10;47.30;;;;;;5031114;28;20205;-49
2022/07/16 02:08:41;;;;;;;5.00;4.60;;;21.00;47.30;;;;;;5030947;28;20197;-48
2022/07/16 02:11:07;;;;;;;4.70;4.20;;;21.00;47.10;;;;;;5031224;28;20347;-47
2022/07/16 02:13:33;;;;;;;4.57;4.10;;;20.90;47.20;;;;;;5030990;28;20264;-45
2022/07/16 02:15:59;;;;;;;5.10;4.60;;;20.90;47.30;;;;;;5030878;28;20232;-45
2022/07/16 02:18:25;;;;;;;4.93;3.97;;;20.90;47.30;;;;;;5029482;28;20455;-45
2022/07/16 02:20:50;;;;;;;4.83;4.43;;;20.90;47.20;;;;;;5031170;28;20197;-48
2022/07/16 02:23:16;;;;;;;5.47;4.97;;;20.80;47.10;;;;;;5030802;28;20303;-45
2022/07/16 02:25:42;;;;;;;5.03;4.57;;;20.80;47.20;;;;;;5030750;28;20196;-46
2022/07/16 02:28:08;;;;;;;5.20;4.73;;;20.70;47.20;;;;;;5030747;28;20239;-44
2022/07/16 02:30:40;;;;;;;4.43;3.97;;;20.70;47.20;;;;;;5031004;28;20232;-45
2022/07/16 02:33:07;;;;;;;6.77;6.17;;;20.70;47.20;;;;;;5030576;28;20204;-45
2022/07/16 02:35:34;;;;;;;4.03;3.73;;;20.60;47.30;;;;;;5030629;28;20781;-46
2022/07/16 02:37:59;;;;;;;5.13;4.20;;;20.60;47.40;;;;;;5030251;28;20964;-44
2022/07/16 02:40:27;;;;;;;5.23;4.73;;;20.50;47.50;;;;;;5030636;28;20475;-44
2022/07/16 02:42:53;;;;;;;4.57;4.17;;;20.40;47.90;;;;;;5030513;28;20431;-45
2022/07/16 02:45:19;;;;;;;5.00;4.50;;;20.30;48.00;;;;;;5021693;28;20466;-46
2022/07/16 02:47:45;;;;;;;4.13;3.83;;;20.10;48.20;;;;;;5030464;28;20439;-44
2022/07/16 02:50:10;;;;;;;4.73;4.23;;;20.10;48.50;;;;;;5030629;28;20432;-46
2022/07/16 02:52:36;;;;;;;3.80;3.50;;;19.90;48.90;;;;;;5030175;28;20251;-46
2022/07/16 02:55:03;;;;;;;5.17;4.67;;;19.90;49.00;;;;;;5030249;28;20200;-47
2022/07/16 02:57:29;;;;;;;5.50;4.93;;;20.00;48.90;;;;;;5028803;28;20245;-45
2022/07/16 02:59:55;;;;;;;9.03;4.60;;;20.10;48.80;;;;;;5030528;28;20462;-44
2022/07/16 03:02:20;;;;;;;5.67;4.60;;;20.10;48.50;;;;;;5030120;28;20569;-44
2022/07/16 03:04:46;;;;;;;5.03;4.53;;;20.10;48.50;;;;;;5030135;28;20189;-44
2022/07/16 03:07:12;;;;;;;8.20;6.37;;;20.10;48.60;;;;;;5030611;28;20201;-44
2022/07/16 03:09:37;;;;;;;10.40;8.10;;;20.10;48.50;;;;;;5030024;28;20196;-45
2022/07/16 03:12:03;;;;;;;11.80;8.73;;;20.10;48.50;;;;;;5028901;28;21618;-43
2022/07/16 03:14:29;;;;;;;15.67;9.33;;;20.10;48.70;;;;;;5028627;28;20201;-45
2022/07/16 03:16:55;;;;;;;20.73;9.83;;;20.10;48.70;;;;;;5030503;28;20787;-44
2022/07/16 03:19:20;;;;;;;8.40;6.63;;;20.10;48.70;;;;;;5029903;28;20207;-44
2022/07/16 03:21:46;;;;;;;6.70;5.70;;;20.10;48.90;;;;;;5030877;28;20197;-44
2022/07/16 03:24:11;;;;;;;5.47;4.93;;;20.00;48.90;;;;;;5029771;28;20224;-44
2022/07/16 03:26:37;;;;;;;4.70;4.30;;;19.90;49.30;;;;;;5030252;28;20657;-44
2022/07/16 03:29:03;;;;;;;4.83;4.47;;;19.80;49.50;;;;;;5029789;28;20235;-44
2022/07/16 03:31:28;;;;;;;15.90;5.60;;;19.80;49.40;;;;;;5030343;28;20264;-43
2022/07/16 03:33:54;;;;;;;8.40;5.10;;;19.80;49.50;;;;;;5029578;28;20221;-44
2022/07/16 03:36:20;;;;;;;12.33;9.37;;;19.80;49.60;;;;;;5030022;28;20235;-43
2022/07/16 03:41:35;;;;;;;11.30;9.30;;;19.60;49.90;;;;;;5030448;28;20203;-44
2022/07/16 03:44:02;;;;;;;7.00;6.30;;;19.60;49.80;;;;;;5029459;28;20436;-44
2022/07/16 03:46:28;;;;;;;13.20;5.53;;;19.60;49.60;;;;;;5026477;28;20476;-44
2022/07/16 03:48:55;;;;;;;6.53;4.60;;;19.50;49.90;;;;;;5029373;28;20493;-43
2022/07/16 03:51:21;;;;;;;5.23;4.67;;;19.50;50.10;;;;;;5029966;28;20515;-44
2022/07/16 03:53:47;;;;;;;4.60;4.20;;;19.50;49.90;;;;;;5029589;28;20416;-45
2022/07/16 03:56:13;;;;;;;4.77;4.37;;;19.50;50.20;;;;;;5029597;28;20440;-44
2022/07/16 03:58:39;;;;;;;6.80;4.73;;;19.30;50.50;;;;;;5029893;28;20236;-44
2022/07/16 04:01:05;;;;;;;4.60;4.20;;;19.30;50.40;;;;;;5028903;28;20284;-44
2022/07/16 04:03:32;;;;;;;5.47;5.00;;;19.40;50.50;;;;;;5029514;28;20424;-43
2022/07/16 04:05:58;;;;;;;6.13;5.27;;;19.50;50.40;;;;;;5028002;28;20921;-43
2022/07/16 04:08:23;;;;;;;6.60;5.10;;;19.50;50.20;;;;;;5029134;28;20423;-44
2022/07/16 04:10:49;;;;;;;6.80;5.73;;;19.50;50.10;;;;;;5030075;28;20221;-43
2022/07/16 04:13:15;;;;;;;5.63;5.13;;;19.60;50.00;;;;;;5029507;28;20699;-44
2022/07/16 04:15:40;;;;;;;5.10;4.70;;;19.50;50.40;;;;;;5029609;28;20633;-44
2022/07/16 04:18:09;;;;;;;5.10;4.70;;;19.10;51.50;;;;;;5029234;28;20679;-43
2022/07/16 04:20:35;;;;;;;7.73;4.57;;;18.90;52.30;;;;;;5029998;28;20242;-44
2022/07/16 04:23:00;;;;;;;6.17;5.57;;;18.50;53.10;;;;;;5029385;28;20522;-46
2022/07/16 04:25:26;;;;;;;5.17;4.77;;;18.40;53.70;;;;;;5029512;28;21027;-44
2022/07/16 04:27:52;;;;;;;5.80;5.30;;;18.00;54.70;;;;;;5032609;28;20201;-43
2022/07/16 04:30:18;;;;;;;8.37;5.07;;;17.70;55.40;;;;;;5033300;28;20252;-47
2022/07/16 04:32:43;;;;;;;6.50;5.73;;;17.70;55.60;;;;;;5031187;28;20186;-44
2022/07/16 04:35:12;;;;;;;5.90;5.30;;;17.70;55.80;;;;;;5033106;28;20192;-44
2022/07/16 04:37:37;;;;;;;8.60;5.17;;;17.60;56.00;;;;;;5032339;28;20954;-44
2022/07/16 04:40:05;;;;;;;6.10;5.50;;;17.60;56.20;;;;;;5033102;28;20431;-45
2022/07/16 04:42:31;;;;;;;9.63;5.40;;;17.90;55.90;;;;;;5032592;28;20290;-45
2022/07/16 04:44:56;;;;;;;6.00;5.40;;;18.20;55.00;;;;;;5026058;28;20483;-44
2022/07/16 04:47:22;;;;;;;6.43;5.33;;;18.50;54.50;;;;;;5032640;28;20204;-43
2022/07/16 04:49:47;;;;;;;6.60;6.00;;;18.50;54.20;;;;;;5033081;28;20200;-48
2022/07/16 04:52:13;;;;;;;7.90;5.57;;;18.60;53.80;;;;;;5033033;28;20193;-45
2022/07/16 04:54:39;;;;;;;5.77;5.27;;;18.60;53.90;;;;;;5031809;28;20203;-44
2022/07/16 04:57:04;;;;;;;5.60;4.97;;;18.50;54.20;;;;;;5033112;28;20197;-44
2022/07/16 04:59:30;;;;;;;5.93;5.43;;;18.50;54.20;;;;;;5030614;28;20194;-45
2022/07/16 05:02:56;;;;;;;6.00;5.50;;;18.60;54.00;;;;;;5032455;28;20228;-45
2022/07/16 05:04:44;;;;;;;6.43;5.20;;;18.70;53.90;;;;;;5032094;28;20201;-44
2022/07/16 05:07:10;;;;;;;6.10;5.60;;;18.50;54.30;;;;;;5032710;28;20439;-44
2022/07/16 05:09:35;;;;;;;5.97;5.47;;;18.60;54.40;;;;;;5032500;28;20276;-46
2022/07/16 05:12:01;;;;;;;5.70;5.20;;;18.80;54.10;;;;;;5032634;28;20648;-46
2022/07/16 05:14:26;;;;;;;6.20;5.60;;;19.00;53.80;;;;;;5031859;28;20211;-45
2022/07/16 05:16:54;;;;;;;6.73;5.70;;;19.10;53.50;;;;;;5032877;28;20192;-44
2022/07/16 05:19:20;;;;;;;5.90;5.30;;;19.30;53.40;;;;;;5032304;28;20596;-44
2022/07/16 05:21:45;;;;;;;7.80;5.73;;;19.20;53.70;;;;;;5032518;28;20487;-45
2022/07/16 05:24:11;;;;;;;5.23;4.73;;;19.30;53.50;;;;;;5031310;28;20501;-46
2022/07/16 05:26:36;;;;;;;6.97;5.53;;;19.50;53.20;;;;;;5030932;28;20656;-47
2022/07/16 05:29:02;;;;;;;8.20;6.13;;;19.50;53.00;;;;;;5031787;28;20280;-45
2022/07/16 05:31:28;;;;;;;6.70;5.17;;;19.40;52.90;;;;;;5032224;28;20652;-44
2022/07/16 05:33:53;;;;;;;7.07;5.33;;;19.20;53.80;;;;;;5031693;28;20197;-45
2022/07/16 05:36:19;;;;;;;5.60;5.20;;;19.10;53.60;;;;;;5031332;28;20240;-44
2022/07/16 05:38:45;;;;;;;6.83;6.13;;;19.00;53.90;;;;;;5030713;28;20233;-45
2022/07/16 05:41:10;;;;;;;7.27;6.63;;;19.00;54.00;;;;;;5032064;28;20224;-43
2022/07/16 05:43:36;;;;;;;6.27;5.67;;;18.50;55.20;;;;;;5031733;28;20197;-43
2022/07/16 05:46:02;;;;;;;6.97;6.27;;;18.40;55.60;;;;;;5025265;28;20272;-44
2022/07/16 05:48:28;;;;;;;6.30;5.10;;;18.50;55.70;;;;;;5031269;28;20189;-44
2022/07/16 05:50:54;;;;;;;5.07;4.70;;;18.90;55.00;;;;;;5031760;28;20200;-47
2022/07/16 05:53:19;;;;;;;5.70;5.20;;;19.30;54.00;;;;;;5029531;28;21254;-44
2022/07/16 05:55:45;;;;;;;6.00;5.20;;;19.70;53.20;;;;;;5031621;28;20899;-44
2022/07/16 05:58:11;;;;;;;5.77;5.07;;;20.00;52.20;;;;;;5030781;28;20280;-46
2022/07/16 06:00:36;;;;;;;10.73;5.30;;;19.80;52.50;;;;;;5031660;28;20225;-46
2022/07/16 06:03:02;;;;;;;6.10;5.50;;;19.70;53.00;;;;;;5031158;28;20194;-44
2022/07/16 06:05:28;;;;;;;9.83;5.33;;;19.90;52.20;;;;;;5031269;28;20243;-48
2022/07/16 06:07:53;;;;;;;5.47;4.90;;;20.30;52.10;;;;;;5030978;28;20221;-48
2022/07/16 06:10:19;;;;;;;6.83;5.00;;;20.60;50.70;;;;;;5031313;28;20653;-44
2022/07/16 06:12:45;;;;;;;5.13;4.60;;;20.90;49.50;;;;;;5031038;28;20657;-45
2022/07/16 06:15:11;;;;;;;5.07;4.57;;;21.10;48.60;;;;;;5031426;28;20708;-45
2022/07/16 06:17:37;;;;;;;7.53;4.70;;;21.30;48.40;;;;;;5030959;28;20209;-47
2022/07/16 06:20:04;;;;;;;6.83;5.20;;;21.60;48.00;;;;;;5029485;28;20245;-44
2022/07/16 06:22:30;;;;;;;4.80;4.40;;;21.80;47.20;;;;;;5030951;28;20435;-45
2022/07/16 06:24:56;;;;;;;6.50;3.83;;;22.00;46.30;;;;;;5030913;28;20813;-44
2022/07/16 06:27:21;;;;;;;5.07;4.57;;;22.20;45.80;;;;;;5030713;28;20224;-44
2022/07/16 06:29:47;;;;;;;5.00;4.00;;;22.40;45.00;;;;;;5031399;28;20193;-44
2022/07/16 06:32:12;;;;;;;8.23;3.57;;;22.60;44.50;;;;;;5030854;28;20193;-44
2022/07/16 06:34:38;;;;;;;4.97;4.20;;;22.70;41.80;;;;;;5030338;28;20200;-44
2022/07/16 06:37:04;;;;;;;6.10;3.90;;;22.90;41.30;;;;;;5031009;28;20268;-44
2022/07/16 06:39:29;;;;;;;5.77;4.23;;;23.10;41.30;;;;;;5030340;28;20727;-44
2022/07/16 06:41:55;;;;;;;4.03;3.73;;;23.00;41.40;;;;;;5030724;28;20276;-44
2022/07/16 06:44:20;;;;;;;4.43;3.83;;;23.10;41.40;;;;;;5026963;28;20205;-44
2022/07/16 06:46:46;;;;;;;5.90;4.80;;;23.20;42.10;;;;;;5026305;28;20225;-47
2022/07/16 06:49:12;;;;;;;6.33;3.93;;;23.20;42.50;;;;;;5029551;28;20569;-45
2022/07/16 06:51:37;;;;;;;4.77;3.67;;;23.40;42.50;;;;;;5030668;28;20216;-45
2022/07/16 06:54:03;;;;;;;11.03;3.90;;;23.50;41.70;;;;;;5029908;28;20182;-44
2022/07/16 06:56:28;;;;;;;4.80;3.80;;;23.60;41.50;;;;;;5030661;28;20937;-44
2022/07/16 06:58:54;;;;;;;5.17;3.60;;;23.60;41.60;;;;;;5030420;28;20276;-45
2022/07/16 07:01:20;;;;;;;4.40;3.73;;;23.90;41.20;;;;;;5030400;28;20354;-44
2022/07/16 07:03:45;;;;;;;4.20;3.23;;;24.00;41.30;;;;;;5030281;28;20315;-44
2022/07/16 07:06:11;;;;;;;4.53;4.13;;;24.00;41.30;;;;;;5030125;28;20205;-44
2022/07/16 07:08:36;;;;;;;5.97;4.20;;;24.20;41.10;;;;;;5030041;28;20672;-44
2022/07/16 07:11:02;;;;;;;3.90;3.50;;;24.40;40.70;;;;;;5030496;28;20189;-44
2022/07/16 07:13:30;;;;;;;6.10;4.17;;;24.60;41.30;;;;;;5030200;28;20189;-43
2022/07/16 07:15:57;;;;;;;7.50;3.67;;;24.80;40.40;;;;;;5028462;28;20201;-44
2022/07/16 07:18:22;;;;;;;5.67;4.03;;;24.90;39.30;;;;;;5029604;28;20515;-44
2022/07/16 07:20:48;;;;;;;3.40;3.10;;;25.00;39.30;;;;;;5030403;28;20968;-44
2022/07/16 07:23:14;;;;;;;3.70;3.00;;;25.20;38.80;;;;;;5030172;28;20193;-44
2022/07/16 07:25:39;;;;;;;4.30;3.90;;;25.40;38.80;;;;;;5030050;28;20185;-44
2022/07/16 07:28:05;;;;;;;3.57;2.97;;;25.60;38.50;;;;;;5029929;28;20197;-45
2022/07/16 07:30:31;;;;;;;3.87;3.47;;;25.80;38.20;;;;;;5030378;28;20197;-44
2022/07/16 07:32:58;;;;;;;5.70;3.67;;;26.00;37.30;;;;;;5029923;28;20220;-44
2022/07/16 07:35:24;;;;;;;4.23;3.83;;;26.10;36.60;;;;;;5029857;28;20246;-45
2022/07/16 07:37:50;;;;;;;4.53;3.60;;;26.30;36.10;;;;;;5029978;28;20495;-46
2022/07/16 07:40:15;;;;;;;6.30;3.47;;;26.50;36.10;;;;;;5030015;28;20264;-45
2022/07/16 07:42:41;;;;;;;5.73;3.50;;;26.60;35.80;;;;;;5028069;28;20256;-44
2022/07/16 07:45:07;;;;;;;7.23;3.33;;;26.60;36.10;;;;;;5023235;28;20186;-44
2022/07/16 07:47:33;;;;;;;4.47;3.00;;;26.70;36.10;;;;;;5029477;28;20201;-44
2022/07/16 07:49:59;;;;;;;5.33;3.40;;;26.80;35.10;;;;;;5030540;28;20435;-44
2022/07/16 07:52:24;;;;;;;5.40;3.87;;;26.90;36.40;;;;;;5029665;28;20208;-44
2022/07/16 07:54:51;;;;;;;4.00;3.57;;;27.00;35.40;;;;;;5029788;28;20255;-44
2022/07/16 07:57:17;;;;;;;3.60;3.30;;;27.20;36.60;;;;;;5030028;28;20197;-46
2022/07/16 07:59:42;;;;;;;3.27;2.90;;;27.40;34.60;;;;;;5029620;28;20436;-44
2022/07/16 08:02:08;;;;;;;3.30;3.00;;;27.50;33.60;;;;;;5032814;28;20424;-44
2022/07/16 08:04:34;;;;;;;4.70;2.93;;;27.70;33.20;;;;;;5032841;28;20197;-44
2022/07/16 08:06:59;;;;;;;3.60;2.73;;;27.70;32.00;;;;;;5033876;28;20196;-44
2022/07/16 08:09:25;;;;;;;5.10;3.17;;;27.80;32.20;;;;;;5031594;28;20779;-45
2022/07/16 08:11:51;;;;;;;3.97;2.93;;;27.90;32.50;;;;;;5033873;28;20189;-45
2022/07/16 08:14:16;;;;;;;5.67;3.40;;;28.00;32.60;;;;;;5032560;28;20193;-44
2022/07/16 08:16:42;;;;;;;3.53;3.23;;;28.10;33.30;;;;;;5033700;28;20199;-48
2022/07/16 08:19:08;;;;;;;3.40;3.10;;;28.20;32.70;;;;;;5033117;28;20197;-44
2022/07/16 08:21:34;;;;;;;3.53;3.20;;;28.30;32.40;;;;;;5033431;28;20291;-46
2022/07/16 08:26:45;;;;;;;3.37;2.80;;;28.40;31.40;;;;;;5033862;28;20204;-46
2022/07/16 08:29:10;;;;;;;2.53;2.33;;;28.40;31.00;;;;;;5032931;28;20432;-46
2022/07/16 08:31:36;;;;;;;3.73;2.70;;;28.40;31.60;;;;;;5033652;28;20204;-44
2022/07/16 08:34:01;;;;;;;2.73;2.40;;;28.50;32.50;;;;;;5032142;28;20185;-48
2022/07/16 08:36:27;;;;;;;3.73;3.10;;;28.70;30.80;;;;;;5031596;28;20225;-44
2022/07/16 08:38:53;;;;;;;5.70;2.60;;;28.90;30.00;;;;;;5032688;28;20197;-48
2022/07/16 08:41:20;;;;;;;2.70;2.00;;;29.10;30.50;;;;;;5033036;28;20256;-49
2022/07/16 08:43:46;;;;;;;2.97;1.97;;;29.20;29.70;;;;;;5032651;28;20907;-48
2022/07/16 08:46:13;;;;;;;2.73;2.13;;;29.30;29.10;;;;;;5026218;28;20439;-49
2022/07/16 08:48:38;;;;;;;4.20;2.30;;;29.50;29.30;;;;;;5032643;28;20189;-49
2022/07/16 08:51:09;;;;;;;2.33;2.13;;;29.70;29.10;;;;;;5033059;28;20428;-48
2022/07/16 08:53:37;;;;;;;3.73;2.30;;;29.80;28.70;;;;;;5032635;28;20197;-48
2022/07/16 08:56:03;;;;;;;3.67;2.40;;;29.90;29.20;;;;;;5032691;28;20428;-47
2022/07/16 08:58:31;;;;;;;2.33;2.03;;;30.10;29.50;;;;;;5032341;28;20543;-46
2022/07/16 09:00:57;;;;;;;1.90;1.80;;;30.20;29.00;;;;;;5032513;28;20486;-46
2022/07/16 09:03:23;;;;;;;5.87;2.43;;;30.30;29.30;;;;;;5030778;28;20424;-49
2022/07/16 09:05:51;;;;;;;3.77;2.23;;;30.40;27.70;;;;;;5032510;28;20459;-49
2022/07/16 09:08:18;;;;;;;3.97;2.03;;;30.60;27.90;;;;;;5032165;28;20197;-46
2022/07/16 09:10:43;;;;;;;2.10;1.90;;;30.70;27.80;;;;;;5032482;28;20431;-49
2022/07/16 09:13:10;;;;;;;2.13;1.93;;;30.80;27.50;;;;;;5030900;28;21083;-45
2022/07/16 09:15:40;;;;;;;2.40;2.20;;;30.90;26.80;;;;;;5032523;28;20586;-49
2022/07/16 09:18:15;;;;;;;4.87;1.87;;;30.90;26.40;;;;;;5032137;28;20473;-48
2022/07/16 09:20:47;;;;;;;2.97;1.70;;;31.10;26.70;;;;;;5032321;28;20577;-45
2022/07/16 09:23:26;;;;;;;1.73;1.63;;;31.10;25.50;;;;;;5031726;28;20440;-47
2022/07/16 09:25:56;;;;;;;2.00;1.80;;;31.20;25.80;;;;;;5032056;28;20443;-45
2022/07/16 09:28:23;;;;;;;2.40;2.20;;;31.30;27.30;;;;;;5031094;28;20784;-47
2022/07/16 09:30:49;;;;;;;4.37;2.57;;;31.50;25.80;;;;;;5031504;28;20462;-49
2022/07/16 09:33:19;;;;;;;3.03;2.20;;;31.60;26.10;;;;;;5031671;28;20463;-49
2022/07/16 09:35:46;;;;;;;4.90;2.37;;;31.70;25.70;;;;;;5031811;28;20722;-49
2022/07/16 09:38:12;;;;;;;2.57;2.37;;;31.70;26.90;;;;;;5031387;28;20459;-48
2022/07/16 09:40:41;;;;;;;4.47;2.40;;;31.90;26.60;;;;;;5031972;28;20479;-46
2022/07/16 09:43:13;;;;;;;2.30;2.10;;;32.10;26.30;;;;;;5031453;28;20431;-47
2022/07/16 09:45:44;;;;;;;8.13;2.70;;;32.20;26.60;;;;;;5025596;28;20452;-46
2022/07/16 09:48:30;;;;;;;3.77;2.47;;;32.40;25.60;;;;;;5031665;28;20439;-47
2022/07/16 09:51:12;;;;;;;4.60;2.33;;;32.60;26.10;;;;;;5032102;28;20435;-45
2022/07/16 09:53:40;;;;;;;2.57;1.83;;;32.80;25.70;;;;;;5031128;28;20454;-49
2022/07/16 09:56:08;;;;;;;2.10;1.90;;;32.80;25.10;;;;;;5030123;28;20438;-45
2022/07/16 09:58:35;;;;;;;2.93;2.00;;;32.80;24.50;;;;;;5031500;28;20469;-47
2022/07/16 10:01:02;;;;;;;2.97;1.87;;;32.90;24.80;;;;;;5031648;28;20482;-46
2022/07/16 10:03:29;;;;;;;3.47;2.00;;;32.90;24.70;;;;;;5030985;28;20420;-49
2022/07/16 10:05:55;;;;;;;6.87;2.07;;;33.10;24.60;;;;;;5031354;28;20420;-48
2022/07/16 10:08:21;;;;;;;1.80;1.70;;;33.00;24.10;;;;;;5031071;28;20432;-48
2022/07/16 10:10:48;;;;;;;2.20;1.90;;;33.00;24.30;;;;;;5031371;28;20427;-48
2022/07/16 10:13:15;;;;;;;2.23;1.87;;;33.10;24.00;;;;;;5030883;28;20424;-48
2022/07/16 10:15:41;;;;;;;2.23;1.63;;;33.00;23.50;;;;;;5031076;28;20462;-48
2022/07/16 10:18:39;;;;;;;3.43;2.00;;;33.20;23.50;;;;;;5031107;28;20424;-45
2022/07/16 10:21:22;;;;;;;4.80;1.97;;;33.30;23.00;;;;;;5031480;28;20525;-47
2022/07/16 10:24:02;;;;;;;3.00;1.73;;;33.40;23.40;;;;;;5028221;28;20498;-45
2022/07/16 10:26:28;;;;;;;2.90;1.97;;;33.50;23.80;;;;;;5031363;28;20424;-45
2022/07/16 10:28:54;;;;;;;2.17;2.00;;;33.70;24.00;;;;;;5030671;28;20851;-46
2022/07/16 10:31:39;;;;;;;2.37;1.80;;;33.90;23.60;;;;;;5031033;28;20221;-47
2022/07/16 10:34:14;;;;;;;3.10;2.20;;;34.20;23.20;;;;;;5030226;28;20814;-49
2022/07/16 10:36:54;;;;;;;3.40;1.93;;;34.20;22.40;;;;;;5031078;28;20475;-47
2022/07/16 10:39:23;;;;;;;2.07;1.70;;;34.20;22.20;;;;;;5019190;28;20432;-50
2022/07/16 10:41:52;;;;;;;2.90;1.73;;;34.40;23.20;;;;;;5030540;28;20487;-46
2022/07/16 10:44:20;;;;;;;2.33;2.07;;;34.50;22.30;;;;;;5027603;28;20455;-49
2022/07/16 10:46:57;;;;;;;1.60;1.50;;;34.50;22.10;;;;;;5027245;28;20412;-48
2022/07/16 10:49:25;;;;;;;2.07;1.87;;;34.50;22.10;;;;;;5028899;28;20779;-49
2022/07/16 10:52:05;;;;;;;2.57;1.63;;;34.60;21.70;;;;;;5030908;28;20424;-49
2022/07/16 10:54:33;;;;;;;3.53;1.83;;;34.60;21.80;;;;;;5030205;28;20444;-47
2022/07/16 10:57:10;;;;;;;2.60;1.70;;;34.30;21.50;;;;;;5030860;28;20432;-47
2022/07/16 10:59:44;;;;;;;3.70;2.10;;;33.90;21.20;;;;;;5029990;28;20431;-49
2022/07/16 11:02:11;;;;;;;5.20;1.70;;;33.90;21.90;;;;;;5030657;28;20486;-48
2022/07/16 11:04:39;;;;;;;1.90;1.60;;;34.10;22.50;;;;;;5029802;28;20930;-49
2022/07/16 11:07:11;;;;;;;1.90;1.80;;;34.10;22.00;;;;;;5030619;28;20671;-48
2022/07/16 11:09:40;;;;;;;2.10;1.77;;;34.30;21.60;;;;;;5030226;28;20432;-49
2022/07/16 11:12:18;;;;;;;1.77;1.50;;;34.50;21.10;;;;;;5030992;28;20802;-48
2022/07/16 11:14:47;;;;;;;1.83;1.67;;;34.80;21.30;;;;;;5030185;28;20481;-47
2022/07/16 11:17:15;;;;;;;4.00;1.87;;;35.00;20.50;;;;;;5029026;28;20420;-46
2022/07/16 11:19:50;;;;;;;2.73;1.63;;;35.00;20.90;;;;;;5029695;28;20432;-45
2022/07/16 11:22:20;;;;;;;1.87;1.60;;;35.10;21.20;;;;;;5030304;28;20447;-45
2022/07/16 11:24:54;;;;;;;1.90;1.80;;;35.10;21.50;;;;;;5029877;28;20459;-45
2022/07/16 11:27:28;;;;;;;1.37;1.30;;;35.20;21.40;;;;;;5029974;28;20534;-46
2022/07/16 11:29:58;;;;;;;1.97;1.87;;;35.50;20.60;;;;;;5030604;28;20966;-45
2022/07/16 11:32:25;;;;;;;1.80;1.70;;;35.70;20.00;;;;;;5029709;28;20424;-46
2022/07/16 11:34:51;;;;;;;1.80;1.70;;;35.20;20.10;;;;;;5030042;28;20523;-45
2022/07/16 11:37:17;;;;;;;1.67;1.57;;;35.20;20.60;;;;;;5033559;28;20558;-46
2022/07/16 11:39:42;;;;;;;1.70;1.60;;;35.30;21.20;;;;;;5034202;28;20193;-45
2022/07/16 11:42:08;;;;;;;3.00;1.83;;;35.50;20.90;;;;;;5034237;28;20703;-46
2022/07/16 11:44:38;;;;;;;2.43;1.63;;;35.80;20.10;;;;;;5027196;28;20225;-45
2022/07/16 11:47:07;;;;;;;1.83;1.47;;;35.90;20.90;;;;;;5032810;28;20601;-46
2022/07/16 11:49:43;;;;;;;1.77;1.63;;;35.80;19.90;;;;;;5033447;28;20447;-46
2022/07/16 11:52:24;;;;;;;2.73;1.30;;;35.70;20.80;;;;;;5034253;28;20435;-46
2022/07/16 11:54:51;;;;;;;3.20;1.80;;;35.70;20.70;;;;;;5033796;28;20493;-46
2022/07/16 11:57:17;;;;;;;1.63;1.50;;;35.70;20.20;;;;;;5034002;28;20853;-48
2022/07/16 11:59:47;;;;;;;2.53;1.60;;;35.50;21.40;;;;;;5033493;28;20442;-47
2022/07/16 12:02:16;;;;;;;1.70;1.47;;;35.60;22.00;;;;;;5033899;28;20501;-49
2022/07/16 12:04:52;;;;;;;2.63;1.60;;;35.40;22.60;;;;;;5033096;28;20428;-47
2022/07/16 12:07:38;;;;;;;4.33;2.93;;;35.30;21.60;;;;;;5033840;28;20446;-49
2022/07/16 12:10:06;;;;;;;3.00;2.70;;;35.30;21.30;;;;;;5032540;28;20454;-47
2022/07/16 12:12:34;;;;;;;3.93;3.63;;;35.30;21.60;;;;;;5032960;28;20925;-49
2022/07/16 12:15:06;;;;;;;2.83;1.87;;;35.40;21.50;;;;;;5033362;28;20510;-48
2022/07/16 12:17:36;;;;;;;1.90;1.57;;;35.20;21.50;;;;;;5033205;28;20440;-49
2022/07/16 12:20:23;;;;;;;2.33;1.53;;;35.20;21.40;;;;;;5033663;28;20442;-49
2022/07/16 12:23:01;;;;;;;2.33;1.63;;;35.20;21.50;;;;;;5033005;28;20451;-48
2022/07/16 12:25:45;;;;;;;3.20;1.30;;;34.90;22.20;;;;;;5033170;28;20797;-46
2022/07/16 12:28:18;;;;;;;3.47;1.80;;;35.00;22.10;;;;;;5032975;28;20439;-48
2022/07/16 12:30:49;;;;;;;2.03;1.57;;;35.00;23.20;;;;;;5033219;28;20519;-47
2022/07/16 12:33:15;;;;;;;1.50;1.40;;;35.20;22.50;;;;;;5033013;28;20802;-48
2022/07/16 12:35:41;;;;;;;3.13;1.63;;;35.40;22.20;;;;;;5032942;28;20420;-49
2022/07/16 12:38:09;;;;;;;2.13;1.60;;;35.60;21.60;;;;;;5030915;28;20647;-49
2022/07/16 12:40:35;;;;;;;2.30;1.30;;;35.70;22.00;;;;;;5033360;28;20506;-46
2022/07/16 12:43:02;;;;;;;2.50;1.80;;;35.60;21.90;;;;;;5032843;28;20420;-50
2022/07/16 12:45:28;;;;;;;4.50;1.83;;;35.60;21.70;;;;;;5025737;28;20463;-48
2022/07/16 12:47:54;;;;;;;3.00;2.10;;;35.60;21.50;;;;;;5032159;28;20428;-46
2022/07/16 12:50:21;;;;;;;2.80;1.50;;;35.70;22.00;;;;;;5033242;28;20478;-49
2022/07/16 12:52:46;;;;;;;3.00;1.50;;;35.60;21.20;;;;;;5032670;28;20246;-45
2022/07/16 13:00:40;;;;;;;1.83;1.70;;;35.60;21.40;;;;;;5032777;28;20498;-47